sensor_id;sensor_type;location;lat;lon;timestamp;temperature;humidity
2523;DHT22;1272;53.332;9.860;2023-09-18T00:01:40;16.80;99.90
2523;DHT22;1272;53.332;9.860;2023-09-18T00:04:06;16.80;99.90
2523;DHT22;1272;53.332;9.860;2023-09-18T00:06:35;16.80;99.90
2523;DHT22;1272;53.332;9.860;2023-09-18T00:09:00;16.70;99.90
2523;DHT22;1272;53.332;9.860;2023-09-18T00:11:26;16.70;99.90
2523;DHT22;1272;53.332;9.860;2023-09-18T00:13:52;16.70;99.90
2523;DHT22;1272;53.332;9.860;2023-09-18T00:16:18;16.70;99.90
2523;DHT22;1272;53.332;9.860;2023-09-18T00:18:44;16.70;99.90
2523;DHT22;1272;53.332;9.860;2023-09-18T00:21:10;16.70;99.90
2523;DHT22;1272;53.332;9.860;2023-09-18T00:23:37;16.60;99.90
2523;DHT22;1272;53.332;9.860;2023-09-18T00:26:03;16.60;99.90
2523;DHT22;1272;53.332;9.860;2023-09-18T00:28:29;16.60;99.90
2523;DHT22;1272;53.332;9.860;2023-09-18T00:30:55;16.50;99.90
2523;DHT22;1272;53.332;9.860;2023-09-18T00:33:20;16.50;99.90
2523;DHT22;1272;53.332;9.860;2023-09-18T00:35:50;16.50;99.90
2523;DHT22;1272;53.332;9.860;2023-09-18T00:38:17;16.50;99.90
2523;DHT22;1272;53.332;9.860;2023-09-18T00:40:43;16.40;99.90
2523;DHT22;1272;53.332;9.860;2023-09-18T00:43:08;16.50;99.90
2523;DHT22;1272;53.332;9.860;2023-09-18T00:45:39;16.40;99.90
2523;DHT22;1272;53.332;9.860;2023-09-18T00:48:06;16.40;99.90
2523;DHT22;1272;53.332;9.860;2023-09-18T00:50:32;16.40;99.90
2523;DHT22;1272;53.332;9.860;2023-09-18T00:52:59;16.30;99.90
2523;DHT22;1272;53.332;9.860;2023-09-18T00:55:27;16.30;99.90
2523;DHT22;1272;53.332;9.860;2023-09-18T00:57:55;16.30;99.90
2523;DHT22;1272;53.332;9.860;2023-09-18T01:00:21;16.30;99.90
2523;DHT22;1272;53.332;9.860;2023-09-18T01:02:47;16.30;99.90
2523;DHT22;1272;53.332;9.860;2023-09-18T01:05:13;16.20;99.90
2523;DHT22;1272;53.332;9.860;2023-09-18T01:10:13;16.20;99.90
2523;DHT22;1272;53.332;9.860;2023-09-18T01:13:20;16.20;99.90
2523;DHT22;1272;53.332;9.860;2023-09-18T01:15:55;16.20;99.90
2523;DHT22;1272;53.332;9.860;2023-09-18T01:18:23;16.20;99.90
2523;DHT22;1272;53.332;9.860;2023-09-18T01:20:48;16.20;99.90
2523;DHT22;1272;53.332;9.860;2023-09-18T01:23:14;16.10;99.90
2523;DHT22;1272;53.332;9.860;2023-09-18T01:25:40;16.10;99.90
2523;DHT22;1272;53.332;9.860;2023-09-18T01:28:06;16.10;99.90
2523;DHT22;1272;53.332;9.860;2023-09-18T01:30:31;16.10;99.90
2523;DHT22;1272;53.332;9.860;2023-09-18T01:33:01;16.20;99.90
2523;DHT22;1272;53.332;9.860;2023-09-18T01:35:29;16.20;99.90
2523;DHT22;1272;53.332;9.860;2023-09-18T01:38:01;16.20;99.90
2523;DHT22;1272;53.332;9.860;2023-09-18T01:40:29;16.20;99.90
2523;DHT22;1272;53.332;9.860;2023-09-18T01:42:55;16.20;99.90
2523;DHT22;1272;53.332;9.860;2023-09-18T01:45:21;16.20;99.90
2523;DHT22;1272;53.332;9.860;2023-09-18T02:00:34;16.20;99.90
2523;DHT22;1272;53.332;9.860;2023-09-18T02:03:00;16.20;99.90
2523;DHT22;1272;53.332;9.860;2023-09-18T02:05:25;16.20;99.90
2523;DHT22;1272;53.332;9.860;2023-09-18T02:07:51;16.10;99.90
2523;DHT22;1272;53.332;9.860;2023-09-18T02:10:16;16.10;99.90
2523;DHT22;1272;53.332;9.860;2023-09-18T02:12:42;16.10;99.90
2523;DHT22;1272;53.332;9.860;2023-09-18T02:15:08;16.10;99.90
2523;DHT22;1272;53.332;9.860;2023-09-18T02:17:36;16.10;99.90
2523;DHT22;1272;53.332;9.860;2023-09-18T02:20:03;16.10;99.90
2523;DHT22;1272;53.332;9.860;2023-09-18T02:22:36;16.10;99.90
2523;DHT22;1272;53.332;9.860;2023-09-18T02:25:01;16.10;99.90
2523;DHT22;1272;53.332;9.860;2023-09-18T02:27:27;16.10;99.90
2523;DHT22;1272;53.332;9.860;2023-09-18T02:29:53;16.00;99.90
2523;DHT22;1272;53.332;9.860;2023-09-18T02:32:19;16.00;99.90
2523;DHT22;1272;53.332;9.860;2023-09-18T02:34:44;16.00;99.90
2523;DHT22;1272;53.332;9.860;2023-09-18T02:37:10;16.00;99.90
2523;DHT22;1272;53.332;9.860;2023-09-18T02:39:36;15.90;99.90
2523;DHT22;1272;53.332;9.860;2023-09-18T02:42:01;15.90;99.90
2523;DHT22;1272;53.332;9.860;2023-09-18T02:44:27;15.90;99.90
2523;DHT22;1272;53.332;9.860;2023-09-18T02:46:53;15.90;99.90
2523;DHT22;1272;53.332;9.860;2023-09-18T02:49:19;15.90;99.90
2523;DHT22;1272;53.332;9.860;2023-09-18T02:51:44;15.80;99.90
2523;DHT22;1272;53.332;9.860;2023-09-18T02:54:10;15.80;99.90
2523;DHT22;1272;53.332;9.860;2023-09-18T02:56:36;15.80;99.90
2523;DHT22;1272;53.332;9.860;2023-09-18T02:59:01;15.80;99.90
2523;DHT22;1272;53.332;9.860;2023-09-18T03:01:27;15.80;99.90
2523;DHT22;1272;53.332;9.860;2023-09-18T03:03:53;15.80;99.90
2523;DHT22;1272;53.332;9.860;2023-09-18T03:06:19;15.80;99.90
2523;DHT22;1272;53.332;9.860;2023-09-18T03:08:44;15.80;99.90
2523;DHT22;1272;53.332;9.860;2023-09-18T03:11:14;15.80;99.90
2523;DHT22;1272;53.332;9.860;2023-09-18T03:13:46;15.80;99.90
2523;DHT22;1272;53.332;9.860;2023-09-18T03:16:12;15.70;99.90
2523;DHT22;1272;53.332;9.860;2023-09-18T03:18:38;15.80;99.90
2523;DHT22;1272;53.332;9.860;2023-09-18T03:21:03;15.70;99.90
2523;DHT22;1272;53.332;9.860;2023-09-18T03:23:29;15.70;99.90
2523;DHT22;1272;53.332;9.860;2023-09-18T03:25:55;15.70;99.90
2523;DHT22;1272;53.332;9.860;2023-09-18T03:28:21;15.70;99.90
2523;DHT22;1272;53.332;9.860;2023-09-18T03:30:46;15.70;99.90
2523;DHT22;1272;53.332;9.860;2023-09-18T03:33:12;15.70;99.90
2523;DHT22;1272;53.332;9.860;2023-09-18T03:35:52;15.60;99.90
2523;DHT22;1272;53.332;9.860;2023-09-18T03:38:19;15.60;99.90
2523;DHT22;1272;53.332;9.860;2023-09-18T03:40:46;15.60;99.90
2523;DHT22;1272;53.332;9.860;2023-09-18T03:43:12;15.60;99.90
2523;DHT22;1272;53.332;9.860;2023-09-18T03:45:38;15.60;99.90
2523;DHT22;1272;53.332;9.860;2023-09-18T03:48:06;15.50;99.90
2523;DHT22;1272;53.332;9.860;2023-09-18T03:50:31;15.50;99.90
2523;DHT22;1272;53.332;9.860;2023-09-18T03:52:58;15.50;99.90
2523;DHT22;1272;53.332;9.860;2023-09-18T03:55:24;15.40;99.90
2523;DHT22;1272;53.332;9.860;2023-09-18T03:57:51;15.40;99.90
2523;DHT22;1272;53.332;9.860;2023-09-18T04:00:17;15.40;99.90
2523;DHT22;1272;53.332;9.860;2023-09-18T04:02:43;15.40;99.90
2523;DHT22;1272;53.332;9.860;2023-09-18T04:05:09;15.40;99.90
2523;DHT22;1272;53.332;9.860;2023-09-18T04:07:35;15.40;99.90
2523;DHT22;1272;53.332;9.860;2023-09-18T04:10:01;15.40;99.90
2523;DHT22;1272;53.332;9.860;2023-09-18T04:12:26;15.40;99.90
2523;DHT22;1272;53.332;9.860;2023-09-18T04:14:52;15.40;99.90
2523;DHT22;1272;53.332;9.860;2023-09-18T04:17:18;15.40;99.90
2523;DHT22;1272;53.332;9.860;2023-09-18T04:19:44;15.40;99.90
2523;DHT22;1272;53.332;9.860;2023-09-18T04:22:09;15.30;99.90
2523;DHT22;1272;53.332;9.860;2023-09-18T04:24:35;15.40;99.90
2523;DHT22;1272;53.332;9.860;2023-09-18T04:27:01;15.30;99.90
2523;DHT22;1272;53.332;9.860;2023-09-18T04:29:27;15.40;99.90
2523;DHT22;1272;53.332;9.860;2023-09-18T04:31:52;15.40;99.90
2523;DHT22;1272;53.332;9.860;2023-09-18T04:34:20;15.40;99.90
2523;DHT22;1272;53.332;9.860;2023-09-18T04:36:46;15.30;99.90
2523;DHT22;1272;53.332;9.860;2023-09-18T04:39:12;15.30;99.90
2523;DHT22;1272;53.332;9.860;2023-09-18T04:41:38;15.30;99.90
2523;DHT22;1272;53.332;9.860;2023-09-18T04:44:04;15.30;99.90
2523;DHT22;1272;53.332;9.860;2023-09-18T04:46:30;15.20;99.90
2523;DHT22;1272;53.332;9.860;2023-09-18T04:48:56;15.20;99.90
2523;DHT22;1272;53.332;9.860;2023-09-18T04:51:22;15.30;99.90
2523;DHT22;1272;53.332;9.860;2023-09-18T04:53:47;15.30;99.90
2523;DHT22;1272;53.332;9.860;2023-09-18T04:56:13;15.30;99.90
2523;DHT22;1272;53.332;9.860;2023-09-18T04:58:39;15.30;99.90
2523;DHT22;1272;53.332;9.860;2023-09-18T05:01:05;15.30;99.90
2523;DHT22;1272;53.332;9.860;2023-09-18T05:03:36;15.30;99.90
2523;DHT22;1272;53.332;9.860;2023-09-18T05:06:02;15.30;99.90
2523;DHT22;1272;53.332;9.860;2023-09-18T05:08:31;15.30;99.90
2523;DHT22;1272;53.332;9.860;2023-09-18T05:10:57;15.30;99.90
2523;DHT22;1272;53.332;9.860;2023-09-18T05:13:23;15.40;99.90
2523;DHT22;1272;53.332;9.860;2023-09-18T05:15:49;15.40;99.90
2523;DHT22;1272;53.332;9.860;2023-09-18T05:18:14;15.50;99.90
2523;DHT22;1272;53.332;9.860;2023-09-18T05:20:40;15.50;99.90
2523;DHT22;1272;53.332;9.860;2023-09-18T05:23:06;15.60;99.90
2523;DHT22;1272;53.332;9.860;2023-09-18T05:25:33;15.60;99.90
2523;DHT22;1272;53.332;9.860;2023-09-18T05:28:00;15.60;99.90
2523;DHT22;1272;53.332;9.860;2023-09-18T05:30:30;15.70;99.90
2523;DHT22;1272;53.332;9.860;2023-09-18T05:32:58;15.70;99.90
2523;DHT22;1272;53.332;9.860;2023-09-18T05:35:31;15.70;99.90
2523;DHT22;1272;53.332;9.860;2023-09-18T05:37:57;15.80;99.90
2523;DHT22;1272;53.332;9.860;2023-09-18T05:40:24;15.80;99.90
2523;DHT22;1272;53.332;9.860;2023-09-18T05:42:52;15.80;99.90
2523;DHT22;1272;53.332;9.860;2023-09-18T05:45:18;15.90;99.90
2523;DHT22;1272;53.332;9.860;2023-09-18T05:47:44;16.00;99.90
2523;DHT22;1272;53.332;9.860;2023-09-18T05:50:11;16.00;99.90
2523;DHT22;1272;53.332;9.860;2023-09-18T05:52:40;16.00;99.90
2523;DHT22;1272;53.332;9.860;2023-09-18T05:55:06;16.10;99.90
2523;DHT22;1272;53.332;9.860;2023-09-18T05:57:33;16.20;99.90
2523;DHT22;1272;53.332;9.860;2023-09-18T05:59:59;16.20;99.90
2523;DHT22;1272;53.332;9.860;2023-09-18T06:02:25;16.30;99.90
2523;DHT22;1272;53.332;9.860;2023-09-18T06:04:58;16.40;99.90
2523;DHT22;1272;53.332;9.860;2023-09-18T06:07:26;16.40;99.90
2523;DHT22;1272;53.332;9.860;2023-09-18T06:09:51;16.50;99.90
2523;DHT22;1272;53.332;9.860;2023-09-18T06:12:17;16.60;99.90
2523;DHT22;1272;53.332;9.860;2023-09-18T06:14:43;16.60;99.90
2523;DHT22;1272;53.332;9.860;2023-09-18T06:17:10;16.70;99.90
2523;DHT22;1272;53.332;9.860;2023-09-18T06:19:36;16.80;99.90
2523;DHT22;1272;53.332;9.860;2023-09-18T06:22:02;16.80;99.90
2523;DHT22;1272;53.332;9.860;2023-09-18T06:24:27;16.90;99.90
2523;DHT22;1272;53.332;9.860;2023-09-18T06:26:53;17.00;99.90
2523;DHT22;1272;53.332;9.860;2023-09-18T06:29:19;17.00;99.90
2523;DHT22;1272;53.332;9.860;2023-09-18T06:31:46;17.10;99.90
2523;DHT22;1272;53.332;9.860;2023-09-18T06:34:11;17.10;99.90
2523;DHT22;1272;53.332;9.860;2023-09-18T06:36:37;17.20;99.90
2523;DHT22;1272;53.332;9.860;2023-09-18T06:39:03;17.30;99.90
2523;DHT22;1272;53.332;9.860;2023-09-18T06:41:29;17.30;99.90
2523;DHT22;1272;53.332;9.860;2023-09-18T06:43:54;17.40;99.90
2523;DHT22;1272;53.332;9.860;2023-09-18T06:46:20;17.50;99.90
2523;DHT22;1272;53.332;9.860;2023-09-18T06:48:46;17.50;99.90
2523;DHT22;1272;53.332;9.860;2023-09-18T06:51:15;17.50;99.90
2523;DHT22;1272;53.332;9.860;2023-09-18T06:53:42;17.60;99.90
2523;DHT22;1272;53.332;9.860;2023-09-18T06:56:08;17.70;99.90
2523;DHT22;1272;53.332;9.860;2023-09-18T06:58:34;17.80;99.90
2523;DHT22;1272;53.332;9.860;2023-09-18T07:01:00;17.90;99.90
2523;DHT22;1272;53.332;9.860;2023-09-18T07:03:26;17.90;99.90
2523;DHT22;1272;53.332;9.860;2023-09-18T07:05:52;18.00;99.90
2523;DHT22;1272;53.332;9.860;2023-09-18T07:08:17;18.00;99.90
2523;DHT22;1272;53.332;9.860;2023-09-18T07:10:49;18.10;99.90
2523;DHT22;1272;53.332;9.860;2023-09-18T07:13:15;18.30;99.90
2523;DHT22;1272;53.332;9.860;2023-09-18T07:15:41;18.30;99.90
2523;DHT22;1272;53.332;9.860;2023-09-18T07:18:07;18.40;99.90
2523;DHT22;1272;53.332;9.860;2023-09-18T07:20:32;18.50;99.90
2523;DHT22;1272;53.332;9.860;2023-09-18T07:22:59;18.60;99.90
2523;DHT22;1272;53.332;9.860;2023-09-18T07:25:24;18.60;99.90
2523;DHT22;1272;53.332;9.860;2023-09-18T07:27:50;18.70;99.90
2523;DHT22;1272;53.332;9.860;2023-09-18T07:30:16;18.80;99.90
2523;DHT22;1272;53.332;9.860;2023-09-18T07:32:42;18.90;99.90
2523;DHT22;1272;53.332;9.860;2023-09-18T07:35:09;19.00;99.90
2523;DHT22;1272;53.332;9.860;2023-09-18T07:37:36;19.00;99.90
2523;DHT22;1272;53.332;9.860;2023-09-18T07:40:06;19.10;99.90
2523;DHT22;1272;53.332;9.860;2023-09-18T07:42:32;19.10;99.90
2523;DHT22;1272;53.332;9.860;2023-09-18T07:44:59;19.20;99.90
2523;DHT22;1272;53.332;9.860;2023-09-18T07:47:25;19.20;99.90
2523;DHT22;1272;53.332;9.860;2023-09-18T07:49:51;19.20;99.90
2523;DHT22;1272;53.332;9.860;2023-09-18T07:52:17;19.30;99.90
2523;DHT22;1272;53.332;9.860;2023-09-18T07:54:43;19.40;99.90
2523;DHT22;1272;53.332;9.860;2023-09-18T07:57:09;19.50;99.90
2523;DHT22;1272;53.332;9.860;2023-09-18T07:59:37;19.50;99.90
2523;DHT22;1272;53.332;9.860;2023-09-18T08:02:05;19.50;99.90
2523;DHT22;1272;53.332;9.860;2023-09-18T08:04:31;19.60;99.90
2523;DHT22;1272;53.332;9.860;2023-09-18T08:06:57;19.60;99.90
2523;DHT22;1272;53.332;9.860;2023-09-18T08:09:23;19.60;99.90
2523;DHT22;1272;53.332;9.860;2023-09-18T08:11:49;19.70;99.90
2523;DHT22;1272;53.332;9.860;2023-09-18T08:14:15;19.70;99.90
2523;DHT22;1272;53.332;9.860;2023-09-18T08:16:42;19.60;99.90
2523;DHT22;1272;53.332;9.860;2023-09-18T08:19:08;19.60;99.90
2523;DHT22;1272;53.332;9.860;2023-09-18T08:21:35;19.70;99.90
2523;DHT22;1272;53.332;9.860;2023-09-18T08:24:00;19.70;99.90
2523;DHT22;1272;53.332;9.860;2023-09-18T08:26:26;19.70;99.90
2523;DHT22;1272;53.332;9.860;2023-09-18T08:28:54;19.80;99.90
2523;DHT22;1272;53.332;9.860;2023-09-18T08:31:20;19.80;99.90
2523;DHT22;1272;53.332;9.860;2023-09-18T08:33:45;19.80;99.90
2523;DHT22;1272;53.332;9.860;2023-09-18T08:36:11;19.80;99.90
2523;DHT22;1272;53.332;9.860;2023-09-18T08:38:37;19.80;99.90
2523;DHT22;1272;53.332;9.860;2023-09-18T08:41:02;19.80;99.90
2523;DHT22;1272;53.332;9.860;2023-09-18T08:43:29;19.80;99.90
2523;DHT22;1272;53.332;9.860;2023-09-18T08:45:56;19.80;99.90
2523;DHT22;1272;53.332;9.860;2023-09-18T08:48:29;19.80;99.90
2523;DHT22;1272;53.332;9.860;2023-09-18T08:51:04;19.80;99.90
2523;DHT22;1272;53.332;9.860;2023-09-18T08:53:31;19.90;99.90
2523;DHT22;1272;53.332;9.860;2023-09-18T08:55:58;19.90;99.90
2523;DHT22;1272;53.332;9.860;2023-09-18T08:58:28;19.90;99.90
2523;DHT22;1272;53.332;9.860;2023-09-18T09:00:57;19.90;99.90
2523;DHT22;1272;53.332;9.860;2023-09-18T09:03:23;20.00;99.90
2523;DHT22;1272;53.332;9.860;2023-09-18T09:05:49;20.10;99.90
2523;DHT22;1272;53.332;9.860;2023-09-18T09:08:15;20.20;99.90
2523;DHT22;1272;53.332;9.860;2023-09-18T09:10:40;20.40;99.90
2523;DHT22;1272;53.332;9.860;2023-09-18T09:13:06;20.50;99.90
2523;DHT22;1272;53.332;9.860;2023-09-18T09:15:43;20.70;99.90
2523;DHT22;1272;53.332;9.860;2023-09-18T09:18:11;20.80;99.90
2523;DHT22;1272;53.332;9.860;2023-09-18T09:20:37;21.00;99.90
2523;DHT22;1272;53.332;9.860;2023-09-18T09:23:08;21.10;99.90
2523;DHT22;1272;53.332;9.860;2023-09-18T09:25:34;21.30;99.90
2523;DHT22;1272;53.332;9.860;2023-09-18T09:28:02;21.50;99.90
2523;DHT22;1272;53.332;9.860;2023-09-18T09:30:32;21.60;76.20
2523;DHT22;1272;53.332;9.860;2023-09-18T09:32:59;21.70;43.10
2523;DHT22;1272;53.332;9.860;2023-09-18T09:35:27;21.70;20.60
2523;DHT22;1272;53.332;9.860;2023-09-18T09:37:56;21.80;1.00
2523;DHT22;1272;53.332;9.860;2023-09-18T09:40:23;21.80;1.00
2523;DHT22;1272;53.332;9.860;2023-09-18T09:42:54;21.80;1.00
2523;DHT22;1272;53.332;9.860;2023-09-18T09:45:27;21.80;1.00
2523;DHT22;1272;53.332;9.860;2023-09-18T09:47:55;22.00;1.00
2523;DHT22;1272;53.332;9.860;2023-09-18T09:50:21;21.90;1.00
2523;DHT22;1272;53.332;9.860;2023-09-18T09:52:52;21.90;1.00
2523;DHT22;1272;53.332;9.860;2023-09-18T09:55:29;21.90;1.00
2523;DHT22;1272;53.332;9.860;2023-09-18T09:58:00;21.90;1.00
2523;DHT22;1272;53.332;9.860;2023-09-18T10:00:41;22.00;1.00
2523;DHT22;1272;53.332;9.860;2023-09-18T10:03:10;22.00;1.00
2523;DHT22;1272;53.332;9.860;2023-09-18T10:05:39;22.00;1.00
2523;DHT22;1272;53.332;9.860;2023-09-18T10:08:14;22.00;1.00
2523;DHT22;1272;53.332;9.860;2023-09-18T10:10:47;22.10;1.00
2523;DHT22;1272;53.332;9.860;2023-09-18T10:13:18;22.20;1.00
2523;DHT22;1272;53.332;9.860;2023-09-18T10:15:46;22.30;1.00
2523;DHT22;1272;53.332;9.860;2023-09-18T10:18:27;22.40;1.00
2523;DHT22;1272;53.332;9.860;2023-09-18T10:24:19;22.60;1.00
2523;DHT22;1272;53.332;9.860;2023-09-18T10:27:00;22.70;99.90
2523;DHT22;1272;53.332;9.860;2023-09-18T10:29:29;22.70;99.90
2523;DHT22;1272;53.332;9.860;2023-09-18T10:31:55;22.80;99.90
2523;DHT22;1272;53.332;9.860;2023-09-18T10:34:24;22.90;99.90
2523;DHT22;1272;53.332;9.860;2023-09-18T10:36:52;22.90;99.90
2523;DHT22;1272;53.332;9.860;2023-09-18T10:39:18;22.90;99.90
2523;DHT22;1272;53.332;9.860;2023-09-18T10:41:51;23.00;99.90
2523;DHT22;1272;53.332;9.860;2023-09-18T10:44:17;23.20;99.90
2523;DHT22;1272;53.332;9.860;2023-09-18T10:46:45;23.40;99.90
2523;DHT22;1272;53.332;9.860;2023-09-18T10:49:11;23.50;1.00
2523;DHT22;1272;53.332;9.860;2023-09-18T10:51:37;23.40;99.90
2523;DHT22;1272;53.332;9.860;2023-09-18T10:54:11;23.30;99.90
2523;DHT22;1272;53.332;9.860;2023-09-18T10:56:37;23.20;99.90
2523;DHT22;1272;53.332;9.860;2023-09-18T10:59:06;23.20;99.90
2523;DHT22;1272;53.332;9.860;2023-09-18T11:01:34;23.10;22.90
2523;DHT22;1272;53.332;9.860;2023-09-18T11:04:04;23.10;99.90
2523;DHT22;1272;53.332;9.860;2023-09-18T11:09:22;23.10;99.90
2523;DHT22;1272;53.332;9.860;2023-09-18T11:12:04;23.10;99.90
2523;DHT22;1272;53.332;9.860;2023-09-18T11:22:30;23.30;1.00
2523;DHT22;1272;53.332;9.860;2023-09-18T11:28:15;23.20;99.90
2523;DHT22;1272;53.332;9.860;2023-09-18T11:30:52;23.10;99.90
2523;DHT22;1272;53.332;9.860;2023-09-18T11:36:06;23.00;1.00
2523;DHT22;1272;53.332;9.860;2023-09-18T11:38:34;23.00;99.90
2523;DHT22;1272;53.332;9.860;2023-09-18T11:41:18;23.00;1.00
2523;DHT22;1272;53.332;9.860;2023-09-18T11:43:45;23.00;1.00
2523;DHT22;1272;53.332;9.860;2023-09-18T11:46:11;22.90;99.90
2523;DHT22;1272;53.332;9.860;2023-09-18T11:48:41;23.00;1.00
2523;DHT22;1272;53.332;9.860;2023-09-18T11:51:07;23.10;69.60
2523;DHT22;1272;53.332;9.860;2023-09-18T11:53:37;23.20;1.00
2523;DHT22;1272;53.332;9.860;2023-09-18T11:56:10;23.20;1.00
2523;DHT22;1272;53.332;9.860;2023-09-18T11:58:50;23.20;99.90
2523;DHT22;1272;53.332;9.860;2023-09-18T12:01:18;23.20;1.00
2523;DHT22;1272;53.332;9.860;2023-09-18T12:03:43;23.30;99.90
2523;DHT22;1272;53.332;9.860;2023-09-18T12:06:10;23.30;97.10
2523;DHT22;1272;53.332;9.860;2023-09-18T12:08:41;23.50;99.90
2523;DHT22;1272;53.332;9.860;2023-09-18T12:11:07;23.60;1.00
2523;DHT22;1272;53.332;9.860;2023-09-18T12:13:33;23.80;7.40
2523;DHT22;1272;53.332;9.860;2023-09-18T12:16:00;24.00;99.90
2523;DHT22;1272;53.332;9.860;2023-09-18T12:18:27;24.30;99.90
2523;DHT22;1272;53.332;9.860;2023-09-18T12:20:57;24.50;99.90
2523;DHT22;1272;53.332;9.860;2023-09-18T12:23:25;24.60;99.90
2523;DHT22;1272;53.332;9.860;2023-09-18T12:25:57;24.50;28.60
2523;DHT22;1272;53.332;9.860;2023-09-18T12:28:25;24.30;88.50
2523;DHT22;1272;53.332;9.860;2023-09-18T12:30:54;24.10;99.90
2523;DHT22;1272;53.332;9.860;2023-09-18T12:33:24;24.00;99.90
2523;DHT22;1272;53.332;9.860;2023-09-18T12:35:50;24.00;99.90
2523;DHT22;1272;53.332;9.860;2023-09-18T12:38:19;23.90;99.90
2523;DHT22;1272;53.332;9.860;2023-09-18T12:40:50;23.90;99.90
2523;DHT22;1272;53.332;9.860;2023-09-18T12:43:16;23.90;99.90
2523;DHT22;1272;53.332;9.860;2023-09-18T12:45:43;24.00;79.40
2523;DHT22;1272;53.332;9.860;2023-09-18T12:48:11;24.10;99.90
2523;DHT22;1272;53.332;9.860;2023-09-18T12:50:37;24.20;1.00
2523;DHT22;1272;53.332;9.860;2023-09-18T12:53:10;24.20;1.00
2523;DHT22;1272;53.332;9.860;2023-09-18T12:55:36;24.30;1.00
2523;DHT22;1272;53.332;9.860;2023-09-18T12:58:02;24.30;1.00
2523;DHT22;1272;53.332;9.860;2023-09-18T13:00:35;24.40;1.00
2523;DHT22;1272;53.332;9.860;2023-09-18T13:03:02;24.50;1.00
2523;DHT22;1272;53.332;9.860;2023-09-18T13:05:30;24.60;1.00
2523;DHT22;1272;53.332;9.860;2023-09-18T13:08:03;24.60;1.00
2523;DHT22;1272;53.332;9.860;2023-09-18T13:10:29;24.60;1.00
2523;DHT22;1272;53.332;9.860;2023-09-18T13:12:55;24.70;1.00
2523;DHT22;1272;53.332;9.860;2023-09-18T13:15:31;24.90;1.00
2523;DHT22;1272;53.332;9.860;2023-09-18T13:18:08;24.90;99.90
2523;DHT22;1272;53.332;9.860;2023-09-18T13:20:34;24.70;1.00
2523;DHT22;1272;53.332;9.860;2023-09-18T13:23:01;24.60;1.00
2523;DHT22;1272;53.332;9.860;2023-09-18T13:25:39;24.70;1.00
2523;DHT22;1272;53.332;9.860;2023-09-18T13:28:09;24.60;1.00
2523;DHT22;1272;53.332;9.860;2023-09-18T13:30:40;24.50;1.00
2523;DHT22;1272;53.332;9.860;2023-09-18T13:33:11;24.40;1.00
2523;DHT22;1272;53.332;9.860;2023-09-18T13:35:39;24.20;1.00
2523;DHT22;1272;53.332;9.860;2023-09-18T13:38:06;24.10;1.00
2523;DHT22;1272;53.332;9.860;2023-09-18T13:40:36;24.00;1.00
2523;DHT22;1272;53.332;9.860;2023-09-18T13:43:03;23.90;1.00
2523;DHT22;1272;53.332;9.860;2023-09-18T13:45:30;23.80;1.00
2523;DHT22;1272;53.332;9.860;2023-09-18T13:47:56;23.80;1.00
2523;DHT22;1272;53.332;9.860;2023-09-18T13:50:21;23.80;29.30
2523;DHT22;1272;53.332;9.860;2023-09-18T13:52:47;23.80;8.20
2523;DHT22;1272;53.332;9.860;2023-09-18T13:55:13;23.70;1.20
2523;DHT22;1272;53.332;9.860;2023-09-18T13:57:38;23.60;1.00
2523;DHT22;1272;53.332;9.860;2023-09-18T14:00:07;23.60;23.30
2523;DHT22;1272;53.332;9.860;2023-09-18T14:02:36;23.60;41.20
2523;DHT22;1272;53.332;9.860;2023-09-18T14:05:02;23.60;99.90
2523;DHT22;1272;53.332;9.860;2023-09-18T14:07:29;23.60;99.90
2523;DHT22;1272;53.332;9.860;2023-09-18T14:09:55;23.60;99.90
2523;DHT22;1272;53.332;9.860;2023-09-18T14:12:21;23.60;90.00
2523;DHT22;1272;53.332;9.860;2023-09-18T14:14:46;23.60;99.90
2523;DHT22;1272;53.332;9.860;2023-09-18T14:17:14;23.60;4.00
2523;DHT22;1272;53.332;9.860;2023-09-18T14:19:43;23.70;1.00
2523;DHT22;1272;53.332;9.860;2023-09-18T14:22:09;23.80;1.00
2523;DHT22;1272;53.332;9.860;2023-09-18T14:24:35;23.90;1.00
2523;DHT22;1272;53.332;9.860;2023-09-18T14:27:02;23.90;1.00
2523;DHT22;1272;53.332;9.860;2023-09-18T14:29:28;24.10;1.00
2523;DHT22;1272;53.332;9.860;2023-09-18T14:31:56;24.20;1.00
2523;DHT22;1272;53.332;9.860;2023-09-18T14:34:21;24.30;1.00
2523;DHT22;1272;53.332;9.860;2023-09-18T14:36:47;24.50;1.00
2523;DHT22;1272;53.332;9.860;2023-09-18T14:39:13;24.60;99.90
2523;DHT22;1272;53.332;9.860;2023-09-18T14:41:39;24.70;99.90
2523;DHT22;1272;53.332;9.860;2023-09-18T14:44:06;24.70;99.90
2523;DHT22;1272;53.332;9.860;2023-09-18T14:46:34;24.60;99.90
2523;DHT22;1272;53.332;9.860;2023-09-18T14:49:00;24.50;99.90
2523;DHT22;1272;53.332;9.860;2023-09-18T14:51:27;24.50;99.90
2523;DHT22;1272;53.332;9.860;2023-09-18T14:53:54;24.40;99.90
2523;DHT22;1272;53.332;9.860;2023-09-18T14:56:20;24.40;99.90
2523;DHT22;1272;53.332;9.860;2023-09-18T14:58:46;24.30;1.00
2523;DHT22;1272;53.332;9.860;2023-09-18T15:01:12;24.20;99.90
2523;DHT22;1272;53.332;9.860;2023-09-18T15:03:39;24.10;99.90
2523;DHT22;1272;53.332;9.860;2023-09-18T15:06:05;24.10;99.90
2523;DHT22;1272;53.332;9.860;2023-09-18T15:08:36;24.10;99.90
2523;DHT22;1272;53.332;9.860;2023-09-18T15:11:01;24.10;99.90
2523;DHT22;1272;53.332;9.860;2023-09-18T15:13:29;24.20;99.90
2523;DHT22;1272;53.332;9.860;2023-09-18T15:15:55;24.20;99.90
2523;DHT22;1272;53.332;9.860;2023-09-18T15:18:21;24.40;99.90
2523;DHT22;1272;53.332;9.860;2023-09-18T15:20:47;24.40;99.90
2523;DHT22;1272;53.332;9.860;2023-09-18T15:23:13;24.40;99.90
2523;DHT22;1272;53.332;9.860;2023-09-18T15:25:39;24.40;99.90
2523;DHT22;1272;53.332;9.860;2023-09-18T15:28:07;24.40;99.90
2523;DHT22;1272;53.332;9.860;2023-09-18T15:30:33;24.50;99.90
2523;DHT22;1272;53.332;9.860;2023-09-18T15:33:01;24.50;99.90
2523;DHT22;1272;53.332;9.860;2023-09-18T15:35:27;24.50;99.90
2523;DHT22;1272;53.332;9.860;2023-09-18T15:37:53;24.50;99.90
2523;DHT22;1272;53.332;9.860;2023-09-18T15:40:19;24.40;99.90
2523;DHT22;1272;53.332;9.860;2023-09-18T15:42:48;24.50;99.90
2523;DHT22;1272;53.332;9.860;2023-09-18T15:45:15;24.50;99.90
2523;DHT22;1272;53.332;9.860;2023-09-18T15:47:41;24.50;99.90
2523;DHT22;1272;53.332;9.860;2023-09-18T15:50:08;24.50;99.90
2523;DHT22;1272;53.332;9.860;2023-09-18T15:52:34;24.50;99.90
2523;DHT22;1272;53.332;9.860;2023-09-18T15:55:00;24.40;99.90
2523;DHT22;1272;53.332;9.860;2023-09-18T15:57:28;24.40;99.90
2523;DHT22;1272;53.332;9.860;2023-09-18T15:59:54;24.30;99.90
2523;DHT22;1272;53.332;9.860;2023-09-18T16:02:21;24.30;99.90
2523;DHT22;1272;53.332;9.860;2023-09-18T16:04:46;24.20;99.90
2523;DHT22;1272;53.332;9.860;2023-09-18T16:07:12;24.20;99.90
2523;DHT22;1272;53.332;9.860;2023-09-18T16:09:39;24.20;99.90
2523;DHT22;1272;53.332;9.860;2023-09-18T16:12:05;24.10;99.90
2523;DHT22;1272;53.332;9.860;2023-09-18T16:14:32;24.10;99.90
2523;DHT22;1272;53.332;9.860;2023-09-18T16:16:58;24.00;99.90
2523;DHT22;1272;53.332;9.860;2023-09-18T16:19:32;24.00;1.00
2523;DHT22;1272;53.332;9.860;2023-09-18T16:21:58;23.90;1.00
2523;DHT22;1272;53.332;9.860;2023-09-18T16:24:25;23.90;1.00
2523;DHT22;1272;53.332;9.860;2023-09-18T16:26:51;23.80;1.00
2523;DHT22;1272;53.332;9.860;2023-09-18T16:29:17;23.70;1.00
2523;DHT22;1272;53.332;9.860;2023-09-18T16:31:43;23.60;1.00
2523;DHT22;1272;53.332;9.860;2023-09-18T16:34:09;23.50;1.00
2523;DHT22;1272;53.332;9.860;2023-09-18T16:36:35;23.40;1.00
2523;DHT22;1272;53.332;9.860;2023-09-18T16:39:01;23.30;1.00
2523;DHT22;1272;53.332;9.860;2023-09-18T16:41:27;23.20;1.00